Las Heras, Argentina
Current Conditions -  °F | °C
As of 4:00 AM on Friday 19 Dec 2014 (Local Time) from SAME Reporting Station
Clear Clear  
Wind Chill: 22°   Ceiling: Unl
Heat Index: 22°   Visibility: 6mi
Dew Point:   Wind: 0mph
Humidity: 43%   Direction: NA
Pressure: 29.68"   Gusts: NA
Location:  32.85°S, 68.82°W
Report Text: SAME 190700Z 00000KT CAVOK 22/09 Q1005
Loading
Personal Weather Stations






























Interactive Weather Map New forecast layout! Learn more

10-Day Weather Forecast

Advertisements
Track Severe Weather on mobile